Time;durP1;ratioP1;P1;durP2;ratioP2;P2;SDS_P1;SDS_P2;PMS_P1;PMS_P2;Temp;Humidity;BMP_temperature;BMP_pressure;BME280_temperature;BME280_humidity;BME280_pressure;Samples;Min_cycle;Max_cycle;Signal;HPM_P1;HPM_P2
2022/07/12 00:01:55;;;;;;;12.50;9.27;;;15.20;1.00;;;;;;5073548;28;20036;-27
2022/07/12 00:04:21;;;;;;;13.05;8.82;;;15.20;1.00;;;;;;5057582;28;20053;-27
2022/07/12 00:06:47;;;;;;;14.68;9.40;;;15.20;1.00;;;;;;5054033;28;20041;-27
2022/07/12 00:09:13;;;;;;;14.02;8.60;;;15.20;1.00;;;;;;5053096;28;20051;-27
2022/07/12 00:11:38;;;;;;;12.85;8.27;;;15.20;1.00;;;;;;5054398;28;20049;-27
2022/07/12 00:14:05;;;;;;;11.10;8.40;;;15.20;1.00;;;;;;5035991;28;20037;-27
2022/07/12 00:16:31;;;;;;;10.32;8.30;;;15.20;1.00;;;;;;5055263;28;20482;-27
2022/07/12 00:18:56;;;;;;;11.35;8.40;;;15.20;1.00;;;;;;5053891;28;20479;-27
2022/07/12 00:21:22;;;;;;;11.95;8.40;;;15.20;1.00;;;;;;5053721;28;20127;-27
2022/07/12 00:23:48;;;;;;;11.15;8.27;;;15.20;1.00;;;;;;5052944;28;20047;-27
2022/07/12 00:26:13;;;;;;;8.48;7.05;;;15.20;1.00;;;;;;5053406;28;20106;-27
2022/07/12 00:28:39;;;;;;;10.13;7.63;;;15.20;1.00;;;;;;5054403;28;20506;-27
2022/07/12 00:31:05;;;;;;;8.20;7.40;;;15.20;1.00;;;;;;5053575;28;20554;-27
2022/07/12 00:33:31;;;;;;;8.30;6.90;;;15.10;1.00;;;;;;5056604;28;20407;-26
2022/07/12 00:35:57;;;;;;;11.70;8.52;;;15.10;1.00;;;;;;5052987;28;20052;-26
2022/07/12 00:38:22;;;;;;;13.82;8.82;;;15.10;1.00;;;;;;5056092;28;20044;-26
2022/07/12 00:40:49;;;;;;;10.18;8.32;;;15.10;1.00;;;;;;5062443;28;20044;-26
2022/07/12 00:43:15;;;;;;;8.00;7.10;;;15.00;1.00;;;;;;5072383;28;20093;-26
2022/07/12 00:45:41;;;;;;;11.50;8.23;;;15.00;1.00;;;;;;5056995;28;20045;-26
2022/07/12 00:48:07;;;;;;;11.68;7.82;;;15.00;1.00;;;;;;5053497;28;20140;-26
2022/07/12 00:50:33;;;;;;;10.77;8.55;;;15.00;1.00;;;;;;5053497;28;20406;-26
2022/07/12 00:52:59;;;;;;;14.98;9.38;;;15.00;1.00;;;;;;5053228;28;20041;-26
2022/07/12 00:55:25;;;;;;;12.32;8.27;;;15.00;1.00;;;;;;5073767;28;20502;-27
2022/07/12 00:57:51;;;;;;;9.20;7.55;;;15.00;1.00;;;;;;5055699;28;20049;-26
2022/07/12 01:00:21;;;;;;;16.00;10.63;;;14.90;1.00;;;;;;5053659;28;20417;-26
2022/07/12 01:02:47;;;;;;;12.38;8.25;;;14.90;1.00;;;;;;5053710;28;20475;-26
2022/07/12 01:05:13;;;;;;;12.00;9.23;;;14.90;1.00;;;;;;5052179;28;20048;-26
2022/07/12 01:07:40;;;;;;;13.40;9.55;;;14.90;1.00;;;;;;5052143;28;20037;-26
2022/07/12 01:10:07;;;;;;;10.20;8.23;;;14.90;1.00;;;;;;5053952;28;20048;-26
2022/07/12 01:12:33;;;;;;;12.40;8.63;;;14.90;1.00;;;;;;5053225;28;20470;-26
2022/07/12 01:15:00;;;;;;;9.52;7.78;;;15.00;1.00;;;;;;5052598;28;20060;-26
2022/07/12 01:17:27;;;;;;;10.88;8.38;;;15.00;1.00;;;;;;5053078;28;20094;-26
2022/07/12 01:19:55;;;;;;;15.32;8.43;;;15.00;1.00;;;;;;5053118;28;20048;-26
2022/07/12 01:22:31;;;;;;;11.73;8.93;;;15.00;1.00;;;;;;5052025;28;20103;-26
2022/07/12 01:24:57;;;;;;;11.85;7.95;;;15.00;1.00;;;;;;5053757;28;20095;-26
2022/07/12 01:27:23;;;;;;;11.52;8.63;;;15.00;1.00;;;;;;5054017;28;20080;-26
2022/07/12 01:29:49;;;;;;;10.35;7.78;;;15.00;1.00;;;;;;5052817;28;20482;-26
2022/07/12 01:32:28;;;;;;;10.05;8.20;;;15.00;1.00;;;;;;5052994;28;20136;-27
2022/07/12 01:35:08;;;;;;;10.00;8.98;;;15.00;1.00;;;;;;5053689;28;20135;-26
2022/07/12 01:37:35;;;;;;;11.88;7.35;;;15.00;1.00;;;;;;5053610;28;20052;-26
2022/07/12 01:40:04;;;;;;;12.98;9.15;;;15.00;1.00;;;;;;5052954;28;20103;-26
2022/07/12 01:42:30;;;;;;;9.88;7.90;;;15.00;1.00;;;;;;5052364;28;20483;-26
2022/07/12 01:44:57;;;;;;;11.00;8.30;;;15.00;1.00;;;;;;5052433;28;20049;-26
2022/07/12 01:47:25;;;;;;;10.77;7.25;;;14.90;1.00;;;;;;5055081;28;20060;-26
2022/07/12 01:49:50;;;;;;;9.70;8.15;;;14.90;1.00;;;;;;5054764;28;20425;-26
2022/07/12 01:52:18;;;;;;;11.35;7.72;;;14.90;1.00;;;;;;5056394;28;21357;-26
2022/07/12 01:54:44;;;;;;;11.32;7.47;;;14.80;1.00;;;;;;5061099;28;20553;-26
2022/07/12 01:57:10;;;;;;;9.18;7.38;;;14.90;1.00;;;;;;5070042;28;20044;-26
2022/07/12 01:59:36;;;;;;;8.95;7.43;;;14.90;1.00;;;;;;5074984;28;20051;-26
2022/07/12 02:02:03;;;;;;;12.57;8.10;;;14.80;1.00;;;;;;5065275;28;20072;-26
2022/07/12 02:04:29;;;;;;;10.20;7.72;;;14.80;1.00;;;;;;5076282;28;20058;-26
2022/07/12 02:06:56;;;;;;;10.65;7.90;;;14.80;1.00;;;;;;5076273;28;20048;-26
2022/07/12 02:09:22;;;;;;;11.45;8.02;;;14.80;1.00;;;;;;5076253;28;20057;-26
2022/07/12 02:11:48;;;;;;;12.65;9.20;;;14.80;1.00;;;;;;5075422;28;20360;-26
2022/07/12 02:14:14;;;;;;;8.65;6.32;;;14.80;1.00;;;;;;5056406;28;20052;-26
2022/07/12 02:16:41;;;;;;;13.75;9.48;;;14.80;1.00;;;;;;5056380;28;20450;-26
2022/07/12 02:19:07;;;;;;;11.02;7.90;;;14.80;1.00;;;;;;5055982;28;20057;-26
2022/07/12 02:21:33;;;;;;;12.38;9.52;;;14.80;1.00;;;;;;5055782;28;20056;-26
2022/07/12 02:23:59;;;;;;;13.38;9.82;;;14.70;1.00;;;;;;5055967;28;20470;-26
2022/07/12 02:26:25;;;;;;;12.95;9.35;;;14.70;1.00;;;;;;5054906;28;20052;-26
2022/07/12 02:28:51;;;;;;;12.10;9.23;;;14.80;1.00;;;;;;5054697;28;20411;-26
2022/07/12 02:31:17;;;;;;;10.13;8.35;;;14.70;1.00;;;;;;5056307;28;20049;-26
2022/07/12 02:33:43;;;;;;;10.63;8.18;;;14.70;1.00;;;;;;5055834;28;20049;-26
2022/07/12 02:36:09;;;;;;;13.73;9.65;;;14.80;1.00;;;;;;5055464;28;20047;-26
2022/07/12 02:38:35;;;;;;;13.90;10.30;;;14.70;1.00;;;;;;5055676;28;20045;-26
2022/07/12 02:41:01;;;;;;;17.92;9.88;;;14.70;1.00;;;;;;5054442;28;20219;-26
2022/07/12 02:43:29;;;;;;;16.52;11.32;;;14.70;1.00;;;;;;5055584;28;20132;-26
2022/07/12 02:46:06;;;;;;;13.85;10.45;;;14.70;1.00;;;;;;5054377;28;20045;-26
2022/07/12 02:48:32;;;;;;;15.10;11.07;;;14.70;1.00;;;;;;5055444;28;20043;-26
2022/07/12 02:51:02;;;;;;;18.35;11.27;;;14.70;1.00;;;;;;5055728;28;20048;-26
2022/07/12 02:53:27;;;;;;;16.75;10.90;;;14.70;1.00;;;;;;5068657;28;20051;-26
2022/07/12 02:55:53;;;;;;;15.43;11.02;;;14.60;13.70;;;;;;5074253;28;20048;-26
2022/07/12 02:58:19;;;;;;;16.60;11.98;;;14.60;1.00;;;;;;5059014;28;20045;-28
2022/07/12 03:00:45;;;;;;;26.27;12.43;;;14.60;5.10;;;;;;5053084;28;20072;-26
2022/07/12 03:03:12;;;;;;;28.33;14.18;;;14.60;25.90;;;;;;5037679;28;20056;-26
2022/07/12 03:05:38;;;;;;;19.55;10.32;;;14.60;52.20;;;;;;5061527;28;20123;-26
2022/07/12 03:08:04;;;;;;;57.90;14.05;;;14.60;67.80;;;;;;5074271;28;20040;-26
2022/07/12 03:10:30;;;;;;;39.85;14.00;;;14.50;53.40;;;;;;5066588;28;20045;-26
2022/07/12 03:12:56;;;;;;;38.58;14.85;;;14.50;65.30;;;;;;5074602;28;20114;-26
2022/07/12 03:15:21;;;;;;;33.83;10.85;;;14.50;86.10;;;;;;5074977;28;20052;-26
2022/07/12 03:17:47;;;;;;;41.63;13.88;;;14.50;96.90;;;;;;5074162;28;20060;-26
2022/07/12 03:20:14;;;;;;;68.22;13.63;;;14.50;99.90;;;;;;5074798;28;20545;-27
2022/07/12 03:22:46;;;;;;;87.32;15.50;;;14.50;99.90;;;;;;5069418;28;20037;-26
2022/07/12 03:25:12;;;;;;;271.10;23.75;;;14.40;99.90;;;;;;5054387;28;20092;-26
2022/07/12 03:27:38;;;;;;;84.03;15.48;;;14.40;99.90;;;;;;5068954;28;20049;-26
2022/07/12 03:30:04;;;;;;;142.57;14.70;;;14.40;99.90;;;;;;5075181;28;20486;-26
2022/07/12 03:32:30;;;;;;;174.90;24.27;;;14.40;99.90;;;;;;5073416;28;20491;-26
2022/07/12 03:34:55;;;;;;;81.68;15.38;;;14.40;99.90;;;;;;5074592;28;20053;-26
2022/07/12 03:37:21;;;;;;;179.60;21.80;;;14.50;99.90;;;;;;5073583;28;20052;-26
2022/07/12 03:39:47;;;;;;;189.55;18.77;;;14.50;99.90;;;;;;5073519;28;20055;-26
2022/07/12 03:42:12;;;;;;;162.90;18.30;;;14.50;99.90;;;;;;5074444;28;20482;-26
2022/07/12 03:44:38;;;;;;;160.30;17.38;;;14.50;99.90;;;;;;5073434;28;20084;-26
2022/07/12 03:47:04;;;;;;;294.70;23.58;;;14.50;99.90;;;;;;5074891;28;20045;-26
2022/07/12 03:49:30;;;;;;;254.05;18.58;;;14.50;99.90;;;;;;5073321;28;20044;-26
2022/07/12 03:51:56;;;;;;;263.60;22.70;;;14.40;99.90;;;;;;5074721;28;20528;-26
2022/07/12 03:54:21;;;;;;;255.18;21.20;;;14.40;99.90;;;;;;5074091;28;20115;-26
2022/07/12 03:59:31;;;;;;;553.00;35.25;;;14.40;99.90;;;;;;5064542;28;20052;-26
2022/07/12 04:01:57;;;;;;;376.63;26.38;;;14.50;99.90;;;;;;5054522;28;20124;-26
2022/07/12 04:04:23;;;;;;;260.58;25.15;;;14.50;99.90;;;;;;5054100;28;20085;-27
2022/07/12 04:06:49;;;;;;;259.35;18.88;;;14.50;99.90;;;;;;5052535;28;20482;-26
2022/07/12 04:09:15;;;;;;;276.02;23.70;;;14.50;99.90;;;;;;5053433;28;20041;-26
2022/07/12 04:11:41;;;;;;;223.25;20.83;;;14.50;99.90;;;;;;5056898;28;20102;-26
2022/07/12 04:14:07;;;;;;;303.70;25.75;;;14.50;99.90;;;;;;5053414;28;20380;-26
2022/07/12 04:16:32;;;;;;;310.23;27.75;;;14.60;99.90;;;;;;5055762;28;20049;-26
2022/07/12 04:18:58;;;;;;;322.15;22.95;;;14.50;99.90;;;;;;5070048;28;20056;-26
2022/07/12 04:21:24;;;;;;;248.57;19.73;;;14.60;99.90;;;;;;5068036;28;20057;-26
2022/07/12 04:23:50;;;;;;;144.93;16.15;;;14.60;99.90;;;;;;5052584;28;20136;-26
2022/07/12 04:26:16;;;;;;;140.60;16.90;;;14.50;99.90;;;;;;5053755;28;20045;-26
2022/07/12 04:28:42;;;;;;;244.57;21.30;;;14.60;99.90;;;;;;5053731;28;20063;-26
2022/07/12 04:31:07;;;;;;;175.40;18.38;;;14.60;99.90;;;;;;5052426;28;20089;-26
2022/07/12 04:33:33;;;;;;;96.28;11.82;;;14.70;99.90;;;;;;5058078;28;20051;-26
2022/07/12 04:35:59;;;;;;;98.75;13.38;;;14.70;99.90;;;;;;5072831;28;20130;-26
2022/07/12 04:38:25;;;;;;;117.70;14.82;;;14.70;99.90;;;;;;5073591;28;20052;-26
2022/07/12 04:40:51;;;;;;;143.88;15.70;;;14.70;99.90;;;;;;5073612;28;20041;-26
2022/07/12 04:43:16;;;;;;;121.82;14.55;;;14.70;99.90;;;;;;5072872;28;20079;-26
2022/07/12 04:45:44;;;;;;;137.32;15.93;;;14.80;99.90;;;;;;5072621;28;20481;-26
2022/07/12 04:48:10;;;;;;;30.33;10.23;;;14.80;99.90;;;;;;5073564;28;20478;-26
2022/07/12 04:50:36;;;;;;;39.97;10.30;;;14.90;99.90;;;;;;5073564;28;20084;-26
2022/07/12 04:53:01;;;;;;;52.92;12.07;;;14.90;99.90;;;;;;5072402;28;20099;-26
2022/07/12 04:55:27;;;;;;;56.50;12.15;;;14.80;99.90;;;;;;5073511;28;20045;-26
2022/07/12 04:57:54;;;;;;;70.38;12.20;;;14.80;99.90;;;;;;5073821;28;20095;-26
2022/07/12 05:00:20;;;;;;;52.65;13.05;;;14.80;99.90;;;;;;5073429;28;20049;-26
2022/07/12 05:02:46;;;;;;;83.53;15.85;;;14.80;99.90;;;;;;5072217;28;20094;-26
2022/07/12 05:05:12;;;;;;;27.17;10.48;;;14.80;99.90;;;;;;5072723;28;20383;-26
2022/07/12 05:07:37;;;;;;;22.77;9.70;;;14.80;99.90;;;;;;5072211;28;20036;-26
2022/07/12 05:10:04;;;;;;;64.63;12.00;;;14.90;99.90;;;;;;5067921;28;20052;-26
2022/07/12 05:12:30;;;;;;;64.15;12.57;;;14.90;99.90;;;;;;5052916;28;20138;-26
2022/07/12 05:14:55;;;;;;;52.70;14.30;;;15.00;99.90;;;;;;5053486;28;20083;-26
2022/07/12 05:17:21;;;;;;;25.52;9.90;;;15.10;99.90;;;;;;5053194;28;20068;-27
2022/07/12 05:19:47;;;;;;;28.10;11.13;;;15.10;99.90;;;;;;5035803;28;20479;-26
2022/07/12 05:22:14;;;;;;;37.17;14.40;;;15.20;99.90;;;;;;5056414;28;20069;-26
2022/07/12 05:24:39;;;;;;;31.85;9.35;;;15.30;99.90;;;;;;5057638;28;20103;-26
2022/07/12 05:27:05;;;;;;;17.83;10.10;;;15.30;99.90;;;;;;5055579;28;20049;-26
2022/07/12 05:29:31;;;;;;;22.25;10.48;;;15.40;99.90;;;;;;5057307;28;20731;-26
2022/07/12 05:31:57;;;;;;;16.70;10.05;;;15.40;99.90;;;;;;5065503;28;20380;-26
2022/07/12 05:34:23;;;;;;;16.38;9.65;;;15.50;99.90;;;;;;5075718;28;20123;-26
2022/07/12 05:36:49;;;;;;;27.60;9.85;;;15.60;99.90;;;;;;5064118;28;20131;-26
2022/07/12 05:39:14;;;;;;;11.25;8.38;;;15.60;99.90;;;;;;5056820;28;20095;-26
2022/07/12 05:41:40;;;;;;;11.10;7.95;;;15.70;91.80;;;;;;5056776;28;20040;-26
2022/07/12 05:44:06;;;;;;;11.57;8.00;;;15.80;67.00;;;;;;5075343;28;20128;-26
2022/07/12 05:46:32;;;;;;;8.95;6.97;;;15.90;67.60;;;;;;5076357;28;20055;-26
2022/07/12 05:48:57;;;;;;;11.45;7.57;;;15.90;3.30;;;;;;5062624;28;20110;-26
2022/07/12 05:54:07;;;;;;;11.27;7.65;;;16.00;1.00;;;;;;5057175;28;20136;-26
2022/07/12 05:56:33;;;;;;;8.73;7.20;;;16.00;1.00;;;;;;5056527;28;20076;-26
2022/07/12 05:58:59;;;;;;;11.77;8.15;;;16.10;1.00;;;;;;5057534;28;20083;-26
2022/07/12 06:01:24;;;;;;;10.77;7.50;;;16.10;1.00;;;;;;5076382;28;20088;-27
2022/07/12 06:03:50;;;;;;;8.32;6.53;;;16.20;1.00;;;;;;5075419;28;20048;-26
2022/07/12 06:06:16;;;;;;;8.25;7.28;;;16.30;1.00;;;;;;5077118;28;20044;-26
2022/07/12 06:08:41;;;;;;;8.35;7.50;;;16.40;1.00;;;;;;5075290;28;20044;-26
2022/07/12 06:11:07;;;;;;;7.90;7.10;;;16.50;1.00;;;;;;5076230;28;20044;-26
2022/07/12 06:13:33;;;;;;;8.25;7.45;;;16.60;99.90;;;;;;5076127;28;20084;-26
2022/07/12 06:15:59;;;;;;;8.20;6.88;;;16.70;99.90;;;;;;5075076;28;20053;-26
2022/07/12 06:18:25;;;;;;;8.27;6.60;;;16.70;99.90;;;;;;5074450;28;20495;-27
2022/07/12 06:20:51;;;;;;;7.38;6.03;;;16.90;99.90;;;;;;5074854;28;20499;-26
2022/07/12 06:23:17;;;;;;;6.22;5.60;;;16.90;99.90;;;;;;5075910;28;20080;-26
2022/07/12 06:25:43;;;;;;;6.80;5.82;;;17.10;99.90;;;;;;5061023;28;20037;-26
2022/07/12 06:28:09;;;;;;;6.82;5.55;;;17.20;99.90;;;;;;5055970;28;20083;-26
2022/07/12 06:30:35;;;;;;;6.57;5.95;;;17.30;74.00;;;;;;5038148;28;20049;-26
2022/07/12 06:33:01;;;;;;;5.22;4.72;;;17.70;1.00;;;;;;5051927;28;20059;-26
2022/07/12 06:35:28;;;;;;;4.82;4.28;;;18.10;1.00;;;;;;5056431;28;20053;-26
2022/07/12 06:37:53;;;;;;;6.20;4.53;;;18.60;99.90;;;;;;5055265;28;20148;-26
2022/07/12 06:40:19;;;;;;;5.30;4.80;;;19.10;99.20;;;;;;5055236;28;20045;-26
2022/07/12 06:42:45;;;;;;;6.32;4.53;;;19.50;1.00;;;;;;5055543;28;20045;-27
2022/07/12 06:45:10;;;;;;;4.40;4.00;;;20.00;99.90;;;;;;5039085;28;20049;-26
2022/07/12 06:47:36;;;;;;;5.38;3.58;;;20.30;41.70;;;;;;5054828;28;20056;-26
2022/07/12 06:50:03;;;;;;;3.60;3.30;;;20.60;1.00;;;;;;5055358;28;20063;-26
2022/07/12 06:52:30;;;;;;;5.18;3.97;;;21.20;1.00;;;;;;5021269;28;20049;-27
2022/07/12 06:54:56;;;;;;;3.50;3.20;;;21.90;99.90;;;;;;5057323;28;20041;-27
2022/07/12 06:57:22;;;;;;;3.85;3.55;;;22.80;1.00;;;;;;5063099;28;20049;-26
2022/07/12 06:59:48;;;;;;;2.88;2.65;;;23.60;99.90;;;;;;5055173;28;20067;-27
2022/07/12 07:02:15;;;;;;;3.20;2.60;;;23.90;94.00;;;;;;5072902;28;20111;-26
2022/07/12 07:04:40;;;;;;;2.35;2.15;;;23.70;1.00;;;;;;5074057;28;20091;-27
2022/07/12 07:07:06;;;;;;;4.25;2.50;;;23.70;46.20;;;;;;5067634;28;20068;-26
2022/07/12 07:09:33;;;;;;;2.67;2.45;;;23.80;68.20;;;;;;5059971;28;20045;-27
2022/07/12 07:11:59;;;;;;;2.33;2.13;;;23.80;1.00;;;;;;5060648;28;20052;-26
2022/07/12 07:14:25;;;;;;;3.90;2.75;;;23.50;1.00;;;;;;5058343;28;20041;-27
2022/07/12 07:16:53;;;;;;;2.50;2.28;;;23.40;30.70;;;;;;5075354;28;20433;-26
2022/07/12 07:19:19;;;;;;;3.33;2.15;;;23.90;22.30;;;;;;5068109;28;20442;-26
2022/07/12 07:21:45;;;;;;;1.95;1.80;;;24.10;1.00;;;;;;5054888;28;20033;-26
2022/07/12 07:24:10;;;;;;;2.38;2.17;;;24.10;1.00;;;;;;5058002;28;20120;-26
2022/07/12 07:26:36;;;;;;;4.30;2.17;;;24.00;1.00;;;;;;5074759;28;20520;-26
2022/07/12 07:31:47;;;;;;;2.90;1.85;;;24.40;1.00;;;;;;5065684;28;20103;-26
2022/07/12 07:34:12;;;;;;;2.88;1.98;;;23.90;1.00;;;;;;5054686;28;20041;-26
2022/07/12 07:36:38;;;;;;;3.90;1.80;;;24.00;1.00;;;;;;5054610;28;20079;-26
2022/07/12 07:39:04;;;;;;;3.05;1.77;;;24.00;1.00;;;;;;5054158;28;20068;-26
2022/07/12 07:41:30;;;;;;;2.80;2.03;;;23.90;1.00;;;;;;5053901;28;20048;-26
2022/07/12 07:43:56;;;;;;;2.75;1.80;;;23.80;1.00;;;;;;5054073;28;20049;-26
2022/07/12 07:46:22;;;;;;;2.10;1.67;;;23.90;1.00;;;;;;5054386;28;20483;-26
2022/07/12 07:48:47;;;;;;;2.40;2.00;;;23.90;1.00;;;;;;5053197;28;20045;-27
2022/07/12 07:51:13;;;;;;;4.72;2.33;;;24.00;1.00;;;;;;5053953;28;20108;-26
2022/07/12 07:53:39;;;;;;;3.13;1.50;;;24.00;1.00;;;;;;5052778;28;20057;-26
2022/07/12 07:56:05;;;;;;;2.00;1.70;;;23.90;1.00;;;;;;5053099;28;20045;-26
2022/07/12 07:58:30;;;;;;;1.92;1.80;;;23.50;1.00;;;;;;5054329;28;20037;-26
2022/07/12 08:00:56;;;;;;;3.08;1.70;;;23.10;99.90;;;;;;5054206;28;20094;-26
2022/07/12 08:03:22;;;;;;;1.95;1.42;;;22.80;99.90;;;;;;5054944;28;20041;-27
2022/07/12 08:05:50;;;;;;;2.15;1.80;;;23.00;99.90;;;;;;5053417;28;20368;-26
2022/07/12 08:08:17;;;;;;;1.58;1.42;;;22.70;99.90;;;;;;5054332;28;20048;-26
2022/07/12 08:10:43;;;;;;;2.85;1.90;;;22.70;99.90;;;;;;5053443;28;20049;-26
2022/07/12 08:13:09;;;;;;;1.85;1.30;;;22.40;99.90;;;;;;5036628;28;20044;-26
2022/07/12 08:15:35;;;;;;;1.65;1.55;;;22.30;99.90;;;;;;5052706;28;20044;-26
2022/07/12 08:18:01;;;;;;;1.88;1.52;;;22.30;99.90;;;;;;5053982;28;20053;-26
2022/07/12 08:20:27;;;;;;;3.30;2.00;;;22.30;99.90;;;;;;5053839;28;20044;-27
2022/07/12 08:22:52;;;;;;;2.50;2.30;;;22.50;99.90;;;;;;5053815;28;20048;-26
2022/07/12 08:25:18;;;;;;;2.42;2.15;;;22.30;99.90;;;;;;5053789;28;20044;-26
2022/07/12 08:27:44;;;;;;;2.30;2.10;;;22.40;99.90;;;;;;5053779;28;20052;-26
2022/07/12 08:30:11;;;;;;;6.18;2.65;;;22.60;99.90;;;;;;5053761;28;20056;-26
2022/07/12 08:32:37;;;;;;;2.88;1.92;;;22.90;99.90;;;;;;5052571;28;20052;-26
2022/07/12 08:35:03;;;;;;;2.30;2.05;;;23.10;99.90;;;;;;5052992;28;20072;-26
2022/07/12 08:37:29;;;;;;;2.38;2.17;;;22.90;99.90;;;;;;5053311;28;20403;-26
2022/07/12 08:39:55;;;;;;;2.40;2.20;;;22.90;99.90;;;;;;5053197;28;20036;-26
2022/07/12 08:42:20;;;;;;;3.75;2.30;;;22.90;99.90;;;;;;5056505;28;20052;-27
2022/07/12 08:44:56;;;;;;;1.98;1.85;;;22.70;99.90;;;;;;5053464;28;20041;-26
2022/07/12 08:47:22;;;;;;;2.28;1.88;;;22.80;99.90;;;;;;5061317;28;20083;-26
2022/07/12 08:50:13;;;;;;;2.95;2.65;;;23.10;99.90;;;;;;5053198;28;20044;-26
2022/07/12 08:52:52;;;;;;;3.17;2.25;;;23.50;40.10;;;;;;5054490;28;20044;-26
2022/07/12 08:55:25;;;;;;;2.53;2.10;;;23.80;1.00;;;;;;5053240;28;20045;-26
2022/07/12 08:57:54;;;;;;;2.83;2.10;;;24.20;99.90;;;;;;5072307;28;20049;-26
2022/07/12 09:00:21;;;;;;;4.00;2.10;;;24.20;1.00;;;;;;5058754;28;20041;-26
2022/07/12 09:02:47;;;;;;;6.15;3.10;;;24.40;1.00;;;;;;5057546;28;20403;-26
2022/07/12 09:05:13;;;;;;;2.35;2.00;;;24.70;99.90;;;;;;5058882;28;20044;-26
2022/07/12 09:07:39;;;;;;;2.78;2.55;;;24.60;99.90;;;;;;5064119;28;20052;-26
2022/07/12 09:10:10;;;;;;;2.03;1.83;;;24.70;99.90;;;;;;5059635;28;20045;-26
2022/07/12 09:12:37;;;;;;;2.78;1.98;;;24.70;99.90;;;;;;5057216;28;20142;-27
2022/07/12 09:15:21;;;;;;;2.88;2.55;;;24.80;99.90;;;;;;5056160;28;20155;-27
2022/07/12 09:18:17;;;;;;;3.38;2.40;;;24.40;99.90;;;;;;5057220;28;20060;-26
2022/07/12 09:20:51;;;;;;;2.05;1.85;;;24.30;99.90;;;;;;5050232;28;20410;-27
2022/07/12 09:23:17;;;;;;;2.55;2.35;;;24.20;99.90;;;;;;5064821;28;20040;-26
2022/07/12 09:25:48;;;;;;;3.72;2.10;;;24.00;1.00;;;;;;5073773;28;20147;-27
2022/07/12 09:28:15;;;;;;;3.93;2.50;;;23.80;1.00;;;;;;5062439;28;20490;-27
2022/07/12 09:30:49;;;;;;;3.10;2.53;;;23.70;1.00;;;;;;5063729;28;20365;-26
2022/07/12 09:36:06;;;;;;;2.83;2.38;;;24.10;1.00;;;;;;5062364;28;20126;-27
2022/07/12 09:38:52;;;;;;;3.90;3.25;;;24.50;1.00;;;;;;5056308;28;20094;-27
2022/07/12 09:41:21;;;;;;;2.75;2.20;;;24.60;99.90;;;;;;5056752;28;20124;-28
2022/07/12 09:43:48;;;;;;;4.30;2.55;;;24.80;99.90;;;;;;5056452;28;20045;-28
2022/07/12 09:46:15;;;;;;;3.97;2.80;;;25.00;99.90;;;;;;5057447;28;20049;-28
2022/07/12 09:48:42;;;;;;;2.58;2.38;;;25.00;99.90;;;;;;5055473;28;20526;-27
2022/07/12 09:51:14;;;;;;;3.50;2.53;;;25.10;1.00;;;;;;5057184;28;20049;-27
2022/07/12 09:53:45;;;;;;;3.40;2.20;;;25.10;1.00;;;;;;5056216;28;20402;-27
2022/07/12 09:56:13;;;;;;;4.47;2.53;;;25.40;50.70;;;;;;5056314;28;20049;-27
2022/07/12 09:58:45;;;;;;;3.08;2.85;;;25.70;1.00;;;;;;5057043;28;20052;-27
2022/07/12 10:01:11;;;;;;;3.83;2.80;;;26.20;1.00;;;;;;5056522;28;20491;-27
2022/07/12 10:03:40;;;;;;;3.92;2.70;;;26.90;99.90;;;;;;5055247;28;20033;-27
2022/07/12 10:06:07;;;;;;;3.22;2.92;;;27.20;95.20;;;;;;5056535;28;20040;-27
2022/07/12 10:08:34;;;;;;;3.80;2.53;;;27.90;1.00;;;;;;5056009;28;20127;-27
2022/07/12 10:11:01;;;;;;;3.00;2.60;;;28.20;99.90;;;;;;5038668;28;20491;-27
2022/07/12 10:13:27;;;;;;;4.03;2.25;;;27.80;99.90;;;;;;5056133;28;20483;-27
2022/07/12 10:16:00;;;;;;;2.58;2.03;;;27.60;99.90;;;;;;5038594;28;20092;-27
2022/07/12 10:18:26;;;;;;;5.07;1.85;;;27.60;99.90;;;;;;5075622;28;20088;-27
2022/07/12 10:20:52;;;;;;;3.80;2.20;;;27.50;81.20;;;;;;5076044;28;20099;-27
2022/07/12 10:23:30;;;;;;;2.38;2.10;;;27.00;99.90;;;;;;5076065;28;20041;-27
2022/07/12 10:25:56;;;;;;;2.13;1.90;;;27.10;99.90;;;;;;5075838;28;20049;-27
2022/07/12 10:28:22;;;;;;;1.98;1.27;;;27.20;99.90;;;;;;5060778;28;20391;-27
2022/07/12 10:30:50;;;;;;;2.38;1.50;;;27.20;92.80;;;;;;5033226;28;20048;-27
2022/07/12 10:33:21;;;;;;;2.15;1.88;;;27.10;1.00;;;;;;5059458;28;20059;-28
2022/07/12 10:35:59;;;;;;;1.98;1.70;;;27.30;1.00;;;;;;5061384;28;20041;-28
2022/07/12 10:38:26;;;;;;;1.67;1.33;;;27.40;1.00;;;;;;5064407;28;20032;-27
2022/07/12 10:40:52;;;;;;;1.55;1.40;;;27.90;1.00;;;;;;5065494;28;20052;-28
2022/07/12 10:44:04;;;;;;;1.40;1.20;;;28.10;99.90;;;;;;5054643;28;20136;-28
2022/07/12 10:46:22;;;;;;;1.27;1.17;;;28.10;99.90;;;;;;5069630;28;20079;-28
2022/07/12 10:48:48;;;;;;;3.40;1.70;;;28.00;99.90;;;;;;5055063;28;20507;-28
2022/07/12 10:51:16;;;;;;;2.25;1.25;;;27.70;99.90;;;;;;5054501;28;20075;-28
2022/07/12 10:53:44;;;;;;;2.75;1.15;;;27.50;99.90;;;;;;5055345;28;20040;-28
2022/07/12 10:56:22;;;;;;;2.95;1.42;;;27.10;99.90;;;;;;5038179;28;20047;-27
2022/07/12 10:58:54;;;;;;;1.60;1.08;;;27.20;99.90;;;;;;5056945;28;20045;-29
2022/07/12 11:01:27;;;;;;;1.80;1.52;;;27.30;99.90;;;;;;5059539;28;20048;-28
2022/07/12 11:04:08;;;;;;;1.90;1.13;;;27.00;99.90;;;;;;5065066;28;20137;-28
2022/07/12 11:06:36;;;;;;;2.38;1.25;;;26.80;99.90;;;;;;5072872;28;20045;-27
2022/07/12 11:09:08;;;;;;;3.30;1.20;;;26.70;99.90;;;;;;5067529;28;20052;-28
2022/07/12 11:11:40;;;;;;;2.38;1.20;;;26.60;99.90;;;;;;5054868;28;20083;-28
2022/07/12 11:14:06;;;;;;;;;;;26.50;99.90;;;;;;5053822;28;20116;-27
2022/07/12 11:16:32;;;;;;;1.10;0.85;;;26.40;99.90;;;;;;5054697;28;19971;-27
2022/07/12 11:18:58;;;;;;;2.20;0.60;;;26.30;99.90;;;;;;5060910;28;20056;-27
2022/07/12 11:21:25;;;;;;;1.05;0.75;;;26.80;99.90;;;;;;5053083;28;20057;-28
2022/07/12 11:23:51;;;;;;;1.63;0.82;;;27.30;91.10;;;;;;5058203;28;20040;-28
2022/07/12 11:26:17;;;;;;;3.10;1.20;;;27.90;99.90;;;;;;5072662;28;20442;-27
2022/07/12 11:28:45;;;;;;;1.38;1.05;;;28.10;1.00;;;;;;5054812;28;20124;-29
2022/07/12 11:31:12;;;;;;;2.85;1.25;;;28.00;1.00;;;;;;5059664;28;20045;-28
2022/07/12 11:33:41;;;;;;;2.50;1.45;;;27.60;1.00;;;;;;5054022;28;20045;-28
2022/07/12 11:36:09;;;;;;;2.63;1.70;;;27.60;1.00;;;;;;5053377;28;20052;-28
2022/07/12 11:38:36;;;;;;;1.77;1.30;;;27.90;1.00;;;;;;5056084;28;20049;-28
2022/07/12 11:41:04;;;;;;;3.72;1.90;;;28.30;1.00;;;;;;5065202;28;20127;-29
2022/07/12 11:43:31;;;;;;;5.95;2.50;;;28.50;1.00;;;;;;5054589;28;20047;-28
2022/07/12 11:45:57;;;;;;;2.45;1.98;;;28.10;1.00;;;;;;5054439;28;20060;-27
2022/07/12 11:48:24;;;;;;;4.40;1.83;;;28.50;1.00;;;;;;5054407;28;20049;-28
2022/07/12 11:50:54;;;;;;;6.28;2.88;;;28.80;1.00;;;;;;5054061;28;20399;-30
2022/07/12 11:53:26;;;;;;;4.75;2.60;;;29.20;1.00;;;;;;5054079;28;20078;-28
2022/07/12 11:55:55;;;;;;;5.15;3.05;;;29.20;1.00;;;;;;5053830;28;20053;-28
2022/07/12 11:58:23;;;;;;;4.00;2.88;;;29.20;1.00;;;;;;5054175;28;20407;-27
2022/07/12 12:00:50;;;;;;;3.63;3.17;;;28.60;1.00;;;;;;5053018;28;20045;-27
2022/07/12 12:03:17;;;;;;;6.70;3.50;;;28.40;1.00;;;;;;5052982;28;20079;-27
2022/07/12 12:05:44;;;;;;;4.22;3.70;;;28.50;1.00;;;;;;5054448;28;20091;-28
2022/07/12 12:08:12;;;;;;;4.93;2.55;;;28.80;1.00;;;;;;5036792;28;20124;-28
2022/07/12 12:10:43;;;;;;;3.10;2.20;;;28.70;1.00;;;;;;5054080;28;20048;-27
2022/07/12 12:13:16;;;;;;;2.42;2.03;;;28.60;1.00;;;;;;5054007;28;20084;-28
2022/07/12 12:15:51;;;;;;;4.25;2.60;;;28.80;1.00;;;;;;5053750;28;20045;-28
2022/07/12 12:18:16;;;;;;;5.93;2.88;;;29.50;1.00;;;;;;5053492;28;20061;-28
2022/07/12 12:20:42;;;;;;;4.82;2.42;;;29.60;1.00;;;;;;5059622;28;20071;-27
2022/07/12 12:23:19;;;;;;;6.03;2.22;;;29.60;1.00;;;;;;5057228;28;20487;-28
2022/07/12 12:25:45;;;;;;;3.25;2.60;;;29.80;1.00;;;;;;5055058;28;20052;-26
2022/07/12 12:28:12;;;;;;;2.30;2.05;;;29.70;1.00;;;;;;5053442;28;20057;-26
2022/07/12 12:30:54;;;;;;;4.43;2.80;;;29.60;1.00;;;;;;5061152;28;20083;-26
2022/07/12 12:33:40;;;;;;;3.03;1.95;;;29.30;1.00;;;;;;5058722;28;20045;-28
2022/07/12 12:36:20;;;;;;;3.65;2.08;;;29.10;1.00;;;;;;5052528;28;20049;-28
2022/07/12 12:38:47;;;;;;;4.03;2.10;;;29.00;1.00;;;;;;5053094;28;20110;-26
2022/07/12 12:41:13;;;;;;;5.00;1.98;;;28.80;1.00;;;;;;5056522;28;20040;-27
2022/07/12 12:43:39;;;;;;;9.00;1.83;;;28.80;1.00;;;;;;5053908;28;20048;-26
2022/07/12 12:46:05;;;;;;;6.03;2.20;;;28.60;1.00;;;;;;5063593;28;20048;-27
2022/07/12 12:48:33;;;;;;;3.63;1.73;;;28.70;99.90;;;;;;5060750;28;20058;-26
2022/07/12 12:51:17;;;;;;;3.20;2.28;;;29.10;1.00;;;;;;5058804;28;20129;-27
2022/07/12 12:53:43;;;;;;;5.13;2.28;;;29.20;1.00;;;;;;5059132;28;20036;-26
2022/07/12 12:56:12;;;;;;;3.28;1.95;;;28.90;1.00;;;;;;5059042;28;20543;-26
2022/07/12 12:58:39;;;;;;;3.65;2.30;;;28.90;1.00;;;;;;5059010;28;20037;-26